Terminal Aerodrome Forecast
Issued by NWS

Home | Current Version | Previous Version | Text Only | Print | Product List | Glossary On
Versions: 1 2 3 4 5 6 7 8 9 10 11 12 13 14 15 16 17 18 19 20 21
000
FTUS46 KSEW 012300
TAFPAE
TAF
KPAE 012320Z 0200/0224 21010KT P6SM BKN019 OVC050
      TEMPO 0200/0203 SCT019 BKN060 OVC100
     FM020600 16006KT P6SM OVC015
     FM021600 17008KT P6SM -SHRA OVC015
     FM022000 20010KT P6SM -SHRA OVC020=

USA.gov is the U.S. government's official web portal to all federal, state and local government web resources and services.